createdAt,value
2024-01-20T00:01:29.412Z,101393.63
2024-01-20T00:03:59.438Z,101380.13
2024-01-20T00:06:27.142Z,101386.34
2024-01-20T00:08:57.440Z,101383.25
2024-01-20T00:11:25.206Z,101387.88
2024-01-20T00:13:53.752Z,101389.19
2024-01-20T00:16:21.877Z,101390.34
2024-01-20T00:18:51.533Z,101391.84
2024-01-20T00:21:20.772Z,101388.09
2024-01-20T00:23:48.751Z,101389.03
2024-01-20T00:26:17.615Z,101386.34
2024-01-20T00:28:45.694Z,101408.72
2024-01-20T00:31:13.968Z,101402.91
2024-01-20T00:33:42.713Z,101388.34
2024-01-20T00:36:10.942Z,101390.25
2024-01-20T00:38:43.485Z,101392.22
2024-01-20T00:41:12.543Z,101381.47
2024-01-20T00:43:41.520Z,101395.75
2024-01-20T00:46:10.034Z,101396.72
2024-01-20T00:48:38.494Z,101394.41
2024-01-20T00:51:06.592Z,101402.66
2024-01-20T00:53:34.487Z,101401.75
2024-01-20T00:56:03.917Z,101407.72
2024-01-20T00:58:32.509Z,101402.47
2024-01-20T01:01:00.280Z,101411.94
2024-01-20T01:03:28.050Z,101441.09
2024-01-20T01:05:56.548Z,101428.03
2024-01-20T01:08:24.620Z,101418.47
2024-01-20T01:10:52.526Z,101442.19
2024-01-20T01:13:21.585Z,101447.03
2024-01-20T01:15:53.966Z,101423.63
2024-01-20T01:18:22.001Z,101452.06
2024-01-20T01:20:50.558Z,101451.03
2024-01-20T01:23:18.358Z,101446.03
2024-01-20T01:25:52.550Z,101445.03
2024-01-20T01:28:21.718Z,101454.50
2024-01-20T01:30:49.839Z,101455.38
2024-01-20T01:33:19.009Z,101455.88
2024-01-20T01:35:47.115Z,101467.78
2024-01-20T01:38:15.640Z,101470.47
2024-01-20T01:40:43.350Z,101481.78
2024-01-20T01:43:11.554Z,101467.69
2024-01-20T01:45:41.276Z,101473.22
2024-01-20T01:48:09.597Z,101469.84
2024-01-20T01:50:37.762Z,101465.66
2024-01-20T01:53:06.656Z,101476.78
2024-01-20T01:55:35.947Z,101483.63
2024-01-20T01:58:05.554Z,101495.66
2024-01-20T02:00:33.526Z,101484.19
2024-01-20T02:03:03.592Z,101488.72
2024-01-20T02:05:31.253Z,101479.66
2024-01-20T02:08:00.548Z,101476.88
2024-01-20T02:10:28.440Z,101472.88
2024-01-20T02:12:56.554Z,101472.25
2024-01-20T02:15:25.311Z,101467.56
2024-01-20T02:17:53.674Z,101476.25
2024-01-20T02:20:24.153Z,101479.72
2024-01-20T02:22:53.266Z,101498.84
2024-01-20T02:25:21.607Z,101488.50
2024-01-20T02:27:49.425Z,101497.13
2024-01-20T02:30:17.142Z,101511.16
2024-01-20T02:32:45.684Z,101519.69
2024-01-20T02:35:13.508Z,101520.63
2024-01-20T02:37:41.608Z,101506.31
2024-01-20T02:40:11.404Z,101512.03
2024-01-20T02:42:39.098Z,101518.34
2024-01-20T02:45:08.671Z,101505.41
2024-01-20T02:47:36.431Z,101514.09
2024-01-20T02:50:04.717Z,101513.34
2024-01-20T02:52:32.440Z,101521.19
2024-01-20T02:55:00.695Z,101527.75
2024-01-20T02:57:29.887Z,101517.88
2024-01-20T02:59:58.646Z,101531.44
2024-01-20T03:02:26.352Z,101522.34
2024-01-20T03:04:54.633Z,101529.13
2024-01-20T03:07:22.322Z,101539.84
2024-01-20T03:09:50.632Z,101538.19
2024-01-20T03:12:18.305Z,101536.69
2024-01-20T03:14:47.626Z,101525.44
2024-01-20T03:17:15.281Z,101517.84
2024-01-20T03:19:44.007Z,101514.47
2024-01-20T03:22:11.748Z,101522.81
2024-01-20T03:24:39.735Z,101519.88
2024-01-20T03:27:07.551Z,101506.63
2024-01-20T03:29:35.660Z,101514.63
2024-01-20T03:32:05.041Z,101507.34
2024-01-20T03:34:33.014Z,101508.91
2024-01-20T03:37:01.666Z,101515.13
2024-01-20T03:39:29.373Z,101503.09
2024-01-20T03:41:57.693Z,101518.94
2024-01-20T03:44:25.703Z,101519.44
2024-01-20T03:46:53.683Z,101542.97
2024-01-20T03:49:22.888Z,101522.25
2024-01-20T03:51:50.855Z,101523.38
2024-01-20T03:54:18.569Z,101532.81
2024-01-20T03:56:46.690Z,101509.81
2024-01-20T03:59:14.332Z,101512.78
2024-01-20T04:01:42.683Z,101509.25
2024-01-20T04:04:10.916Z,101505.63
2024-01-20T04:06:40.724Z,101515.16
2024-01-20T04:09:08.583Z,101521.84
2024-01-20T04:11:36.382Z,101529.34
2024-01-20T04:14:04.700Z,101517.91
2024-01-20T04:16:32.695Z,101541.50
2024-01-20T04:19:00.870Z,101535.00
2024-01-20T04:21:28.697Z,101545.09
2024-01-20T04:23:57.817Z,101556.47
2024-01-20T04:26:25.729Z,101535.56
2024-01-20T04:28:53.390Z,101528.75
2024-01-20T04:31:21.168Z,101537.66
2024-01-20T04:33:49.796Z,101548.69
2024-01-20T04:36:17.529Z,101559.69
2024-01-20T04:38:45.361Z,101547.06
2024-01-20T04:41:14.706Z,101551.69
2024-01-20T04:43:43.179Z,101562.16
2024-01-20T04:46:11.725Z,101561.31
2024-01-20T04:48:39.516Z,101571.06
2024-01-20T04:51:07.739Z,101567.38
2024-01-20T04:53:35.763Z,101562.16
2024-01-20T04:56:04.698Z,101574.97
2024-01-20T04:58:34.757Z,101574.06
2024-01-20T05:01:02.735Z,101582.09
2024-01-20T05:03:30.779Z,101571.84
2024-01-20T05:05:58.563Z,101587.34
2024-01-20T05:08:27.745Z,101570.41
2024-01-20T05:10:55.423Z,101608.78
2024-01-20T05:13:23.342Z,101604.66
2024-01-20T05:15:54.763Z,101595.66
2024-01-20T05:18:22.915Z,101607.19
2024-01-20T05:20:50.739Z,101599.84
2024-01-20T05:23:19.764Z,101601.22
2024-01-20T05:25:47.787Z,101602.09
2024-01-20T05:31:33.273Z,101596.13
2024-01-20T05:34:01.352Z,101610.03
2024-01-20T05:36:30.352Z,101613.06
2024-01-20T05:38:58.814Z,101590.66
2024-01-20T05:41:26.536Z,101600.66
2024-01-20T05:43:55.098Z,101611.16
2024-01-20T05:46:22.797Z,101611.63
2024-01-20T05:48:53.041Z,101607.16
2024-01-20T05:51:20.884Z,101604.47
2024-01-20T05:53:48.581Z,101616.88
2024-01-20T05:56:17.773Z,101618.13
2024-01-20T05:58:45.568Z,101615.69
2024-01-20T06:01:14.843Z,101611.66
2024-01-20T06:03:42.803Z,101628.31
2024-01-20T06:06:12.520Z,101606.44
2024-01-20T06:08:40.937Z,101627.91
2024-01-20T06:11:08.585Z,101611.53
2024-01-20T06:13:36.821Z,101626.03
2024-01-20T06:16:04.793Z,101617.97
2024-01-20T06:18:32.915Z,101617.59
2024-01-20T06:21:01.576Z,101641.16
2024-01-20T06:23:30.739Z,101647.03
2024-01-20T06:25:59.862Z,101675.09
2024-01-20T06:28:27.590Z,101667.91
2024-01-20T06:30:55.826Z,101656.28
2024-01-20T06:33:23.676Z,101672.44
2024-01-20T06:35:52.989Z,101654.34
2024-01-20T06:38:21.028Z,101646.41
2024-01-20T06:40:50.050Z,101643.22
2024-01-20T06:43:17.865Z,101663.66
2024-01-20T06:45:47.213Z,101640.72
2024-01-20T06:48:14.991Z,101666.59
2024-01-20T06:50:45.868Z,101655.09
2024-01-20T06:53:13.589Z,101647.50
2024-01-20T06:55:41.273Z,101648.25
2024-01-20T06:58:10.456Z,101641.53
2024-01-20T07:00:38.926Z,101660.81
2024-01-20T07:03:06.755Z,101644.63
2024-01-20T07:05:34.886Z,101650.72
2024-01-20T07:08:03.153Z,101650.94
2024-01-20T07:10:30.911Z,101655.88
2024-01-20T07:12:58.568Z,101654.09
2024-01-20T07:15:27.927Z,101667.19
2024-01-20T07:17:57.122Z,101666.34
2024-01-20T07:20:25.874Z,101664.91
2024-01-20T07:22:53.621Z,101669.13
2024-01-20T07:25:21.282Z,101662.25
2024-01-20T07:27:49.901Z,101672.72
2024-01-20T07:30:17.813Z,101679.16
2024-01-20T07:32:47.907Z,101673.66
2024-01-20T07:35:15.642Z,101667.59
2024-01-20T07:37:44.063Z,101679.91
2024-01-20T07:40:12.526Z,101672.50
2024-01-20T07:42:42.092Z,101678.44
2024-01-20T07:45:10.653Z,101694.41
2024-01-20T07:47:38.419Z,101684.28
2024-01-20T07:52:55.931Z,101702.03
2024-01-20T07:55:23.621Z,101687.47
2024-01-20T07:57:52.000Z,101697.84
2024-01-20T08:00:20.377Z,101732.59
2024-01-20T08:02:48.938Z,101736.22
2024-01-20T08:05:16.812Z,101733.09
2024-01-20T08:07:44.978Z,101740.75
2024-01-20T08:10:14.429Z,101719.91
2024-01-20T08:12:42.718Z,101736.19
2024-01-20T08:15:11.948Z,101728.00
2024-01-20T08:17:41.403Z,101742.31
2024-01-20T08:20:11.746Z,101723.88
2024-01-20T08:22:39.974Z,101737.88
2024-01-20T08:25:09.534Z,101745.28
2024-01-20T08:27:38.957Z,101750.34
2024-01-20T08:30:07.989Z,101738.19
2024-01-20T08:32:36.078Z,101739.75
2024-01-20T08:35:03.959Z,101738.44
2024-01-20T08:37:31.963Z,101737.56
2024-01-20T08:39:59.667Z,101732.09
2024-01-20T08:42:28.018Z,101747.53
2024-01-20T08:44:57.159Z,101763.69
2024-01-20T08:47:24.876Z,101746.50
2024-01-20T08:49:53.976Z,101758.72
2024-01-20T08:52:21.727Z,101749.47
2024-01-20T08:54:49.443Z,101759.84
2024-01-20T08:57:18.024Z,101745.34
2024-01-20T08:59:45.686Z,101769.00
2024-01-20T09:02:14.985Z,101760.84
2024-01-20T09:04:42.681Z,101756.28
2024-01-20T09:07:11.021Z,101764.31
2024-01-20T09:09:38.803Z,101756.84
2024-01-20T09:12:08.007Z,101758.25
2024-01-20T09:14:37.539Z,101753.75
2024-01-20T09:17:05.515Z,101744.75
2024-01-20T09:19:35.168Z,101765.63
2024-01-20T09:22:02.868Z,101766.28
2024-01-20T09:24:30.536Z,101771.84
2024-01-20T09:26:59.022Z,101753.94
2024-01-20T09:29:26.725Z,101736.94
2024-01-20T09:31:56.279Z,101758.59
2024-01-20T09:34:24.040Z,101767.69
2024-01-20T09:36:53.996Z,101748.16
2024-01-20T09:39:21.761Z,101768.28
2024-01-20T09:41:50.005Z,101775.41
2024-01-20T09:44:17.750Z,101783.53
2024-01-20T09:46:46.021Z,101767.13
2024-01-20T09:49:13.861Z,101775.53
2024-01-20T09:51:47.786Z,101784.22
2024-01-20T09:54:18.061Z,101777.56
2024-01-20T09:56:45.719Z,101797.13
2024-01-20T09:59:15.155Z,101794.19
2024-01-20T10:01:44.130Z,101786.63
2024-01-20T10:04:11.996Z,101809.84
2024-01-20T10:06:40.095Z,101803.44
2024-01-20T10:09:07.866Z,101801.66
2024-01-20T10:11:37.040Z,101810.97
2024-01-20T10:14:05.027Z,101807.47
2024-01-20T10:16:39.174Z,101817.81
2024-01-20T10:19:07.038Z,101810.19
2024-01-20T10:21:40.448Z,101833.50
2024-01-20T10:24:09.087Z,101814.28
2024-01-20T10:26:44.860Z,101818.81
2024-01-20T10:29:12.522Z,101824.09
2024-01-20T10:31:41.057Z,101824.88
2024-01-20T10:34:08.951Z,101815.81
2024-01-20T10:36:37.180Z,101835.69
2024-01-20T10:39:07.010Z,101825.72
2024-01-20T10:41:37.070Z,101832.00
2024-01-20T10:44:07.446Z,101831.94
2024-01-20T10:46:39.333Z,101828.94
2024-01-20T10:49:10.511Z,101837.94
2024-01-20T10:51:39.141Z,101829.28
2024-01-20T10:54:10.124Z,101838.56
2024-01-20T10:56:38.369Z,101839.00
2024-01-20T10:59:13.614Z,101840.91
2024-01-20T11:01:43.724Z,101844.59
2024-01-20T11:04:12.202Z,101835.19
2024-01-20T11:06:40.061Z,101827.13
2024-01-20T11:09:09.141Z,101839.56
2024-01-20T11:11:57.769Z,101853.69
2024-01-20T11:14:31.125Z,101836.22
2024-01-20T11:16:59.733Z,101845.53
2024-01-20T11:19:31.285Z,101852.59
2024-01-20T11:21:59.018Z,101851.84
2024-01-20T11:24:40.401Z,101846.56
2024-01-20T11:27:09.191Z,101835.38
2024-01-20T11:29:38.407Z,101823.88
2024-01-20T11:32:07.016Z,101835.91
2024-01-20T11:34:35.229Z,101854.91
2024-01-20T11:37:04.018Z,101855.41
2024-01-20T11:39:32.181Z,101855.03
2024-01-20T11:42:03.750Z,101849.28
2024-01-20T11:44:32.532Z,101840.94
2024-01-20T11:47:02.159Z,101845.16
2024-01-20T11:49:29.884Z,101843.56
2024-01-20T11:51:58.406Z,101847.50
2024-01-20T11:54:26.179Z,101882.44
2024-01-20T11:56:59.175Z,101871.63
2024-01-20T11:59:27.310Z,101851.63
2024-01-20T12:01:56.197Z,101850.84
2024-01-20T12:04:25.716Z,101854.22
2024-01-20T12:06:54.242Z,101835.44
2024-01-20T12:09:22.067Z,101836.28
2024-01-20T12:11:49.765Z,101824.84
2024-01-20T12:14:19.198Z,101814.97
2024-01-20T12:16:46.884Z,101856.47
2024-01-20T12:19:15.268Z,101859.63
2024-01-20T12:21:45.377Z,101851.28
2024-01-20T12:24:14.256Z,101843.56
2024-01-20T12:26:43.140Z,101832.84
2024-01-20T12:29:10.794Z,101856.31
2024-01-20T12:31:38.514Z,101843.13
2024-01-20T12:34:06.291Z,101860.13
2024-01-20T12:36:34.150Z,101839.22
2024-01-20T12:39:04.231Z,101812.88
2024-01-20T12:41:31.942Z,101832.75
2024-01-20T12:44:00.233Z,101812.13
2024-01-20T12:46:27.941Z,101831.38
2024-01-20T12:48:56.274Z,101808.25
2024-01-20T12:51:24.145Z,101800.81
2024-01-20T12:53:51.819Z,101806.22
2024-01-20T12:56:21.259Z,101815.34
2024-01-20T12:58:48.925Z,101805.94
2024-01-20T13:01:18.258Z,101783.72
2024-01-20T13:03:46.167Z,101831.22
2024-01-20T13:06:14.321Z,101799.72
2024-01-20T13:08:41.982Z,101816.13
2024-01-20T13:11:10.244Z,101809.97
2024-01-20T13:13:41.598Z,101818.50
2024-01-20T13:16:09.478Z,101786.34
2024-01-20T13:18:37.393Z,101800.59
2024-01-20T13:21:05.489Z,101764.97
2024-01-20T13:23:33.161Z,101775.00
2024-01-20T13:26:02.416Z,101822.59
2024-01-20T13:28:31.891Z,101824.16
2024-01-20T13:31:01.050Z,101805.72
2024-01-20T13:33:29.395Z,101827.59
2024-01-20T13:35:57.071Z,101793.50
2024-01-20T13:38:25.303Z,101816.94
2024-01-20T13:40:53.093Z,101814.41
2024-01-20T13:43:21.284Z,101769.84
2024-01-20T13:45:49.053Z,101779.50
2024-01-20T13:48:18.579Z,101818.91
2024-01-20T13:50:46.370Z,101785.53
2024-01-20T13:53:14.296Z,101771.47
2024-01-20T13:55:42.006Z,101816.56
2024-01-20T13:58:10.030Z,101777.84
2024-01-20T14:00:38.419Z,101809.66
2024-01-20T14:03:06.525Z,101779.16
2024-01-20T14:08:24.309Z,101797.81
2024-01-20T14:10:52.160Z,101809.25
2024-01-20T14:13:20.318Z,101821.63
2024-01-20T14:15:48.176Z,101800.06
2024-01-20T14:18:15.951Z,101810.53
2024-01-20T14:23:30.330Z,101789.00
2024-01-20T14:25:58.133Z,101808.53
2024-01-20T14:28:26.479Z,101833.69
2024-01-20T14:30:54.193Z,101814.09
2024-01-20T14:33:22.502Z,101810.75
2024-01-20T14:35:50.349Z,101808.81
2024-01-20T14:38:18.368Z,101779.59
2024-01-20T14:40:47.404Z,101814.09
2024-01-20T14:43:15.350Z,101785.38
2024-01-20T14:45:43.104Z,101817.84
2024-01-20T14:48:12.541Z,101840.09
2024-01-20T14:50:40.326Z,101815.84
2024-01-20T14:53:08.373Z,101777.91
2024-01-20T14:55:36.316Z,101794.34
2024-01-20T14:58:06.373Z,101788.59
2024-01-20T15:00:34.053Z,101798.34
2024-01-20T15:03:02.481Z,101841.88
2024-01-20T15:05:30.293Z,101800.00
2024-01-20T15:07:58.398Z,101827.28
2024-01-20T15:10:26.029Z,101845.69
2024-01-20T15:12:54.418Z,101809.03
2024-01-20T15:15:23.555Z,101828.75
2024-01-20T15:17:51.442Z,101863.22
2024-01-20T15:20:22.097Z,101831.66
2024-01-20T15:22:51.397Z,101827.78
2024-01-20T15:25:19.712Z,101810.50
2024-01-20T15:27:49.579Z,101833.13
2024-01-20T15:30:17.395Z,101858.47
2024-01-20T15:32:46.543Z,101826.66
2024-01-20T15:35:14.369Z,101852.63
2024-01-20T15:37:42.037Z,101842.38
2024-01-20T15:40:10.682Z,101837.06
2024-01-20T15:42:38.492Z,101833.47
2024-01-20T15:45:07.222Z,101825.38
2024-01-20T15:47:34.922Z,101848.53
2024-01-20T15:50:05.470Z,101847.63
2024-01-20T15:52:33.260Z,101854.44
2024-01-20T15:55:01.452Z,101843.25
2024-01-20T15:57:29.132Z,101835.91
2024-01-20T15:59:57.453Z,101817.66
2024-01-20T16:02:25.715Z,101842.94
2024-01-20T16:04:53.440Z,101824.84
2024-01-20T16:07:22.697Z,101787.56
2024-01-20T16:09:50.520Z,101792.16
2024-01-20T16:12:18.319Z,101793.25
2024-01-20T16:14:46.465Z,101784.75
2024-01-20T16:17:14.151Z,101803.91
2024-01-20T16:19:42.533Z,101788.75
2024-01-20T16:22:10.220Z,101787.31
2024-01-20T16:24:39.429Z,101777.94
2024-01-20T16:27:07.475Z,101816.94
2024-01-20T16:29:35.195Z,101833.16
2024-01-20T16:32:03.316Z,101839.38
2024-01-20T16:34:31.125Z,101835.34
2024-01-20T16:36:59.495Z,101849.38
2024-01-20T16:39:27.186Z,101833.09
2024-01-20T16:41:56.935Z,101823.09
2024-01-20T16:44:25.486Z,101836.88
2024-01-20T16:46:53.847Z,101825.47
2024-01-20T16:49:22.639Z,101821.13
2024-01-20T16:51:50.439Z,101817.88
2024-01-20T16:54:18.569Z,101823.72
2024-01-20T16:56:46.268Z,101798.41
2024-01-20T16:59:15.493Z,101803.69
2024-01-20T17:01:43.188Z,101822.31
2024-01-20T17:04:11.858Z,101826.41
2024-01-20T17:06:39.654Z,101784.50
2024-01-20T17:09:07.548Z,101794.56
2024-01-20T17:11:35.237Z,101787.84
2024-01-20T17:14:05.542Z,101806.25
2024-01-20T17:16:35.247Z,101811.97
2024-01-20T17:19:05.584Z,101794.94
2024-01-20T17:21:34.380Z,101807.84
2024-01-20T17:24:02.671Z,101783.69
2024-01-20T17:26:31.119Z,101792.81
2024-01-20T17:28:59.533Z,101801.69
2024-01-20T17:31:29.793Z,101812.78
2024-01-20T17:33:59.657Z,101814.16
2024-01-20T17:36:27.407Z,101772.84
2024-01-20T17:38:57.552Z,101773.59
2024-01-20T17:41:25.261Z,101814.81
2024-01-20T17:43:53.560Z,101809.97
2024-01-20T17:46:21.190Z,101825.78
2024-01-20T17:48:49.697Z,101841.03
2024-01-20T17:51:18.936Z,101832.50
2024-01-20T17:53:47.563Z,101817.31
2024-01-20T17:56:15.346Z,101815.00
2024-01-20T17:58:43.576Z,101831.47
2024-01-20T18:01:18.835Z,101817.84
2024-01-20T18:03:47.663Z,101800.03
2024-01-20T18:06:16.382Z,101788.72
2024-01-20T18:08:46.570Z,101789.59
2024-01-20T18:11:14.305Z,101803.34
2024-01-20T18:13:42.565Z,101804.66
2024-01-20T18:16:10.305Z,101795.56
2024-01-20T18:18:38.186Z,101803.47
2024-01-20T18:21:06.643Z,101835.81
2024-01-20T18:23:34.330Z,101812.63
2024-01-20T18:26:03.326Z,101822.31
2024-01-20T18:28:31.600Z,101801.38
2024-01-20T18:31:00.682Z,101794.22
2024-01-20T18:33:29.641Z,101806.09
2024-01-20T18:35:57.475Z,101801.25
2024-01-20T18:38:25.609Z,101811.13
2024-01-20T18:40:53.301Z,101827.13
2024-01-20T18:43:22.593Z,101827.16
2024-01-20T18:45:50.233Z,101820.84
2024-01-20T18:48:18.731Z,101828.78
2024-01-20T18:50:46.747Z,101820.00
2024-01-20T18:53:14.610Z,101828.50
2024-01-20T18:55:42.384Z,101814.66
2024-01-20T18:58:12.622Z,101805.66
2024-01-20T19:00:42.109Z,101797.06
2024-01-20T19:03:10.968Z,101811.69
2024-01-20T19:05:39.377Z,101799.75
2024-01-20T19:08:07.635Z,101779.25
2024-01-20T19:10:35.242Z,101785.13
2024-01-20T19:13:03.637Z,101789.50
2024-01-20T19:15:31.555Z,101811.44
2024-01-20T19:18:01.758Z,101802.16
2024-01-20T19:20:30.216Z,101792.84
2024-01-20T19:22:58.809Z,101779.06
2024-01-20T19:25:26.955Z,101787.28
2024-01-20T19:27:56.418Z,101763.00
2024-01-20T19:30:25.379Z,101783.38
2024-01-20T19:32:53.215Z,101754.06
2024-01-20T19:35:23.677Z,101751.63
2024-01-20T19:37:51.405Z,101747.38
2024-01-20T19:40:19.409Z,101753.69
2024-01-20T19:42:47.700Z,101761.41
2024-01-20T19:45:38.459Z,101781.56
2024-01-20T19:48:04.806Z,101752.09
2024-01-20T19:50:33.985Z,101758.97
2024-01-20T19:53:02.694Z,101732.00
2024-01-20T19:55:30.568Z,101748.47
2024-01-20T19:57:58.745Z,101744.22
2024-01-20T20:00:26.506Z,101749.19
2024-01-20T20:03:00.791Z,101756.09
2024-01-20T20:05:28.491Z,101772.53
2024-01-20T20:07:57.703Z,101789.66
2024-01-20T20:10:28.163Z,101769.34
2024-01-20T20:12:56.714Z,101753.50
2024-01-20T20:15:24.525Z,101774.06
2024-01-20T20:17:52.263Z,101763.00
2024-01-20T20:20:24.717Z,101747.84
2024-01-20T20:22:52.509Z,101758.03
2024-01-20T20:25:21.726Z,101744.75
2024-01-20T20:27:49.502Z,101747.91
2024-01-20T20:30:17.921Z,101750.22
2024-01-20T20:32:46.606Z,101735.38
2024-01-20T20:35:15.744Z,101718.44
2024-01-20T20:37:43.417Z,101719.66
2024-01-20T20:40:12.737Z,101721.53
2024-01-20T20:42:41.843Z,101723.50
2024-01-20T20:45:10.757Z,101749.94
2024-01-20T20:47:38.557Z,101733.22
2024-01-20T20:50:07.884Z,101724.56
2024-01-20T20:52:35.743Z,101712.06
2024-01-20T20:55:03.427Z,101714.63
2024-01-20T20:57:42.879Z,101714.13
2024-01-20T21:00:15.981Z,101735.41
2024-01-20T21:02:45.583Z,101715.81
2024-01-20T21:05:18.060Z,101686.47
2024-01-20T21:07:46.171Z,101694.88
2024-01-20T21:10:15.554Z,101700.13
2024-01-20T21:12:45.870Z,101704.34
2024-01-20T21:15:14.130Z,101693.19
2024-01-20T21:17:42.897Z,101697.38
2024-01-20T21:20:11.735Z,101731.44
2024-01-20T21:22:39.808Z,101689.94
2024-01-20T21:25:08.993Z,101701.00
2024-01-20T21:27:36.671Z,101691.13
2024-01-20T21:30:06.811Z,101666.03
2024-01-20T21:32:34.528Z,101681.69
2024-01-20T21:35:02.908Z,101667.56
2024-01-20T21:37:30.788Z,101664.78
2024-01-20T21:39:58.805Z,101654.13
2024-01-20T21:42:26.478Z,101665.13
2024-01-20T21:44:57.949Z,101675.44
2024-01-20T21:47:48.890Z,101648.28
2024-01-20T21:50:16.693Z,101655.28
2024-01-20T21:52:44.796Z,101648.88
2024-01-20T21:55:12.480Z,101651.34
2024-01-20T21:57:42.940Z,101654.03
2024-01-20T22:00:11.484Z,101662.41
2024-01-20T22:02:39.924Z,101660.84
2024-01-20T22:05:09.472Z,101653.94
2024-01-20T22:07:36.853Z,101657.03
2024-01-20T22:10:06.000Z,101662.78
2024-01-20T22:12:33.933Z,101659.75
2024-01-20T22:15:01.835Z,101650.28
2024-01-20T22:17:29.507Z,101661.69
2024-01-20T22:19:57.726Z,101647.44
2024-01-20T22:22:27.845Z,101645.84
2024-01-20T22:24:55.552Z,101622.03
2024-01-20T22:27:23.891Z,101633.78
2024-01-20T22:29:51.574Z,101640.56
2024-01-20T22:32:19.255Z,101650.41
2024-01-20T22:34:47.926Z,101633.81
2024-01-20T22:37:15.720Z,101630.00
2024-01-20T22:39:44.943Z,101646.91
2024-01-20T22:42:12.691Z,101630.34
2024-01-20T22:44:40.326Z,101636.56
2024-01-20T22:47:08.183Z,101621.22
2024-01-20T22:49:36.920Z,101624.31
2024-01-20T22:52:05.853Z,101597.31
2024-01-20T22:54:34.897Z,101615.31
2024-01-20T22:57:05.854Z,101611.56
2024-01-20T22:59:33.888Z,101626.81
2024-01-20T23:02:01.589Z,101628.72
2024-01-20T23:04:29.647Z,101642.25
2024-01-20T23:06:57.923Z,101627.78
2024-01-20T23:09:27.393Z,101634.16
2024-01-20T23:11:55.910Z,101625.72
2024-01-20T23:14:25.242Z,101599.31
2024-01-20T23:16:53.889Z,101596.59
2024-01-20T23:19:21.635Z,101586.56
2024-01-20T23:21:49.327Z,101595.47
2024-01-20T23:24:17.975Z,101589.81
2024-01-20T23:26:46.064Z,101600.97
2024-01-20T23:29:13.710Z,101580.72
2024-01-20T23:31:42.909Z,101595.41
2024-01-20T23:34:11.273Z,101577.66
2024-01-20T23:36:39.125Z,101583.63
2024-01-20T23:39:16.954Z,101576.28
2024-01-20T23:41:44.623Z,101586.31
2024-01-20T23:44:12.319Z,101605.53
2024-01-20T23:46:40.981Z,101596.69
2024-01-20T23:49:11.631Z,101580.88
2024-01-20T23:51:39.974Z,101577.06
2024-01-20T23:54:07.720Z,101568.03
2024-01-20T23:56:35.942Z,101559.41
2024-01-20T23:59:04.027Z,101543.06
